Time;durP1;ratioP1;P1;durP2;ratioP2;P2;SDS_P1;SDS_P2;PMS_P1;PMS_P2;Temp;Humidity;BMP_temperature;BMP_pressure;BME280_temperature;BME280_humidity;BME280_pressure;Samples;Min_cycle;Max_cycle;Signal;HPM_P1;HPM_P2
2020/12/10 08:41:30;;;;;;;;;;;;;;;;;;5078898;27;20005;-43
2020/12/10 08:43:55;;;;;;;;;;;;;;;;;;5067340;28;19912;-42
2020/12/10 08:46:20;;;;;;;;;;;;;;;;;;5067983;28;20042;-41
2020/12/10 08:48:45;;;;;;;;;;;;;;;;;;5068165;28;19993;-46
2020/12/10 08:51:10;;;;;;;;;;;;;;;;;;5050685;28;19936;-42
2020/12/10 08:53:38;;;;;;;;;;;;;;;;;;5072547;23;19947;-47
2020/12/10 08:56:04;;;;;;;;;;;;;;;;;;5067825;28;19962;-43
2020/12/10 08:58:29;;;;;;;;;;;;;;;;;;5068285;28;20300;-44
2020/12/10 09:00:54;;;;;;;;;;;;;;;;;;5068384;28;19923;-45
2020/12/10 09:03:20;;;;;;;;;;;;;;;;;;5066356;28;19973;-45
2020/12/10 09:05:45;;;;;;;;;;;;;;;;;;5067939;28;19913;-45
2020/12/10 09:08:10;;;;;;;;;;;;;;;;;;5068054;28;20362;-44
2020/12/10 09:10:35;;;;;;;;;;;;;;;;;;5067640;28;19908;-43
2020/12/10 09:13:00;;;;;;;;;;;;;;;;;;5066489;28;19916;-42
2020/12/10 09:15:26;;;;;;;;;;;;;;;;;;5067965;28;19909;-44
2020/12/10 09:17:51;;;;;;;;;;;;;;;;;;5067351;28;19909;-42
2020/12/10 09:20:16;;;;;;;;;;;;;;;;;;5067392;28;20316;-44
2020/12/10 09:22:41;;;;;;;;;;;;;;;;;;5066561;28;19997;-43
2020/12/10 09:25:06;;;;;;;;;;;;;;;;;;5067283;28;20388;-43
2020/12/10 09:27:31;;;;;;;;;;;;;;;;;;5067810;28;20389;-42
2020/12/10 09:29:56;;;;;;;;;;;;;;;;;;5067484;28;20319;-44
2020/12/10 09:32:21;;;;;;;;;;;;;;;;;;5066286;28;19909;-45
2020/12/10 09:34:47;;;;;;;;;;;;;;;;;;5067646;28;20121;-43
2020/12/10 09:37:12;;;;;;;;;;;;;;;;;;5070389;28;19908;-45
2020/12/10 09:39:37;;;;;;;;;;;;;;;;;;5087016;28;19912;-44
2020/12/10 09:42:02;;;;;;;;;;;;;;;;;;5087247;28;20045;-46
2020/12/10 09:44:27;;;;;;;;;;;;;;;;;;5082967;28;20010;-46
2020/12/10 09:46:52;;;;;;;;;;;;;;;;;;5066927;28;19947;-44
2020/12/10 09:49:18;;;;;;;;;;;;;;;;;;5066986;28;20353;-44
2020/12/10 09:51:47;;;;;;;;;;;;;;;;;;5064516;28;19920;-44
2020/12/10 09:59:26;;;;;;;;;;;;;;;;;;5053712;28;19927;-44
2020/12/10 10:01:51;;;;;;;;;;;;;;;;;;5053010;28;19915;-44
2020/12/10 10:04:17;;;;;;;;;;;;;;;;;;5052956;28;19909;-45
2020/12/10 10:06:42;;;;;;;;;;;;;;;;;;5053592;28;19986;-44
2020/12/10 10:09:07;;;;;;;;;;;;;;;;;;5053072;28;19944;-46
2020/12/10 10:11:32;;;;;;;;;;;;;;;;;;5053203;28;19909;-43
2020/12/10 10:13:57;;;;;;;;;;;;;;;;;;5052896;28;19908;-46
2020/12/10 10:16:22;;;;;;;;;;;;;;;;;;5052903;28;19909;-46
2020/12/10 10:18:47;;;;;;;;;;;;;;;;;;5053424;28;19909;-47
2020/12/10 10:21:12;;;;;;;;;;;;;;;;;;5053026;28;19913;-42
2020/12/10 10:23:37;;;;;;;;;;;;;;;;;;5051125;28;19913;-42
2020/12/10 10:26:03;;;;;;;;;;;;;;;;;;5053580;28;20001;-44
2020/12/10 10:28:28;;;;;;;;;;;;;;;;;;5053122;28;19958;-45
2020/12/10 10:30:53;;;;;;;;;;;;;;;;;;5050029;28;19917;-43
2020/12/10 10:33:22;;;;;;;;;;;;;;;;;;5033453;28;19955;-44
2020/12/10 10:35:48;;;;;;;;;;;;;;;;;;5039361;28;19916;-45
2020/12/10 10:38:13;;;;;;;;;;;;;;;;;;5053481;28;19908;-42
2020/12/10 10:40:38;;;;;;;;;;;;;;;;;;5053558;28;19912;-43
2020/12/10 10:43:03;;;;;;;;;;;;;;;;;;5053407;28;20118;-43
2020/12/10 10:45:28;;;;;;;;;;;;;;;;;;5040494;28;20008;-45
2020/12/10 10:47:53;;;;;;;;;;;;;;;;;;5033610;28;19949;-45
2020/12/10 10:50:19;;;;;;;;;;;;;;;;;;5033438;28;19940;-45
2020/12/10 10:52:45;;;;;;;;;;;;;;;;;;5043691;28;19951;-43
2020/12/10 10:55:10;;;;;;;;;;;;;;;;;;5052790;28;19917;-43
2020/12/10 10:57:35;;;;;;;;;;;;;;;;;;5053403;28;19909;-42
2020/12/10 11:00:00;;;;;;;;;;;;;;;;;;5053122;28;20011;-43
2020/12/10 11:02:25;;;;;;;;;;;;;;;;;;5052539;28;19912;-44
2020/12/10 11:04:53;;;;;;;;;;;;;;;;;;5052320;28;20278;-44
2020/12/10 11:07:18;;;;;;;;;;;;;;;;;;5053298;28;19920;-42
2020/12/10 11:09:43;;;;;;;;;;;;;;;;;;5053183;28;19928;-44
2020/12/10 11:12:09;;;;;;;;;;;;;;;;;;5052917;28;19909;-44
2020/12/10 11:14:34;;;;;;;;;;;;;;;;;;5052981;28;20274;-43
2020/12/10 11:17:00;;;;;;;;;;;;;;;;;;5052971;28;19916;-43
2020/12/10 11:19:25;;;;;;;;;;;;;;;;;;5052820;28;20365;-44
2020/12/10 11:21:50;;;;;;;;;;;;;;;;;;5053084;28;19959;-45
2020/12/10 11:24:15;;;;;;;;;;;;;;;;;;5052180;28;19908;-44
2020/12/10 11:26:40;;;;;;;;;;;;;;;;;;5050687;28;20427;-42
2020/12/10 11:29:06;;;;;;;;;;;;;;;;;;5050790;28;19913;-45
2020/12/10 11:31:31;;;;;;;;;;;;;;;;;;5050583;28;19962;-44
2020/12/10 11:33:56;;;;;;;;;;;;;;;;;;5050486;28;20007;-43
2020/12/10 11:36:21;;;;;;;;;;;;;;;;;;5050430;28;19999;-45
2020/12/10 11:38:46;;;;;;;;;;;;;;;;;;5050560;28;19999;-45
2020/12/10 11:41:11;;;;;;;;;;;;;;;;;;5050482;28;19979;-45
2020/12/10 11:43:36;;;;;;;;;;;;;;;;;;5049881;28;20584;-47
2020/12/10 11:46:02;;;;;;;;;;;;;;;;;;5033142;28;19917;-44
2020/12/10 11:48:27;;;;;;;;;;;;;;;;;;5030590;28;19909;-42
2020/12/10 11:50:52;;;;;;;;;;;;;;;;;;5030716;28;19909;-43
2020/12/10 11:53:18;;;;;;;;;;;;;;;;;;5037532;28;19920;-44
2020/12/10 11:55:43;;;;;;;;;;;;;;;;;;5049831;28;19935;-44
2020/12/10 11:58:08;;;;;;;;;;;;;;;;;;5050394;28;19908;-44
2020/12/10 12:00:33;;;;;;;;;;;;;;;;;;5050218;28;19967;-45
2020/12/10 12:02:59;;;;;;;;;;;;;;;;;;5049698;28;19916;-46
2020/12/10 12:05:24;;;;;;;;;;;;;;;;;;5050057;28;19908;-44
2020/12/10 12:07:49;;;;;;;;;;;;;;;;;;5050027;28;19909;-44
2020/12/10 12:10:15;;;;;;;;;;;;;;;;;;5050115;28;19913;-44
2020/12/10 12:12:40;;;;;;;;;;;;;;;;;;5049808;28;19909;-43
2020/12/10 12:15:05;;;;;;;;;;;;;;;;;;5049585;28;19916;-45
2020/12/10 12:17:30;;;;;;;;;;;;;;;;;;5050140;28;20058;-45
2020/12/10 12:19:55;;;;;;;;;;;;;;;;;;5049733;28;19939;-45
2020/12/10 12:22:21;;;;;;;;;;;;;;;;;;5049839;28;19916;-43
2020/12/10 12:24:46;;;;;;;;;;;;;;;;;;5049785;28;19982;-44
2020/12/10 12:27:12;;;;;;;;;;;;;;;;;;5049982;28;19909;-43
2020/12/10 12:29:38;;;;;;;;;;;;;;;;;;5049695;28;19940;-44
2020/12/10 12:32:04;;;;;;;;;;;;;;;;;;5049882;28;19909;-43
2020/12/10 12:34:29;;;;;;;;;;;;;;;;;;5049732;28;19970;-45
2020/12/10 12:36:54;;;;;;;;;;;;;;;;;;5049790;28;19968;-43
2020/12/10 12:39:19;;;;;;;;;;;;;;;;;;5049964;28;19958;-43
2020/12/10 12:41:44;;;;;;;;;;;;;;;;;;5050238;28;19913;-43
2020/12/10 12:44:09;;;;;;;;;;;;;;;;;;5049643;28;19913;-44
2020/12/10 12:46:34;;;;;;;;;;;;;;;;;;5049936;28;19990;-44
2020/12/10 12:48:59;;;;;;;;;;;;;;;;;;5049413;28;20180;-45
2020/12/10 12:51:24;;;;;;;;;;;;;;;;;;5049583;28;19970;-48
2020/12/10 12:53:52;;;;;;;;;;;;;;;;;;5048687;28;19917;-43
2020/12/10 12:56:19;;;;;;;;;;;;;;;;;;5048319;28;19966;-45
2020/12/10 12:58:48;;;;;;;;;;;;;;;;;;5049504;28;19951;-44
2020/12/10 13:01:13;;;;;;;;;;;;;;;;;;5049491;28;19952;-44
2020/12/10 13:03:38;;;;;;;;;;;;;;;;;;5049139;28;19940;-45
2020/12/10 13:06:03;;;;;;;;;;;;;;;;;;5049495;28;19948;-44
2020/12/10 13:08:28;;;;;;;;;;;;;;;;;;5049687;28;20396;-44
2020/12/10 13:10:56;;;;;;;;;;;;;;;;;;5049631;28;19916;-43
2020/12/10 13:13:21;;;;;;;;;;;;;;;;;;5049327;28;19937;-46
2020/12/10 13:15:46;;;;;;;;;;;;;;;;;;5049497;28;19994;-46
2020/12/10 13:18:12;;;;;;;;;;;;;;;;;;5049901;28;19963;-44
2020/12/10 13:20:37;;;;;;;;;;;;;;;;;;5049640;28;20007;-45
2020/12/10 13:23:02;;;;;;;;;;;;;;;;;;5049130;28;20370;-45
2020/12/10 13:25:28;;;;;;;;;;;;;;;;;;5048993;28;19909;-46
2020/12/10 13:27:53;;;;;;;;;;;;;;;;;;5052772;28;20366;-45
2020/12/10 13:30:19;;;;;;;;;;;;;;;;;;5053370;28;20354;-45
2020/12/10 13:32:44;;;;;;;;;;;;;;;;;;5053683;28;20232;-44
2020/12/10 13:35:14;;;;;;;;;;;;;;;;;;5053155;28;20240;-44
2020/12/10 13:37:39;;;;;;;;;;;;;;;;;;5053091;28;20278;-45
2020/12/10 13:40:05;;;;;;;;;;;;;;;;;;5052877;28;20289;-46
2020/12/10 13:42:30;;;;;;;;;;;;;;;;;;5052950;28;19908;-44
2020/12/10 13:44:55;;;;;;;;;;;;;;;;;;5052716;28;19992;-43
2020/12/10 13:47:20;;;;;;;;;;;;;;;;;;5052839;28;20003;-45
2020/12/10 13:49:45;;;;;;;;;;;;;;;;;;5052768;28;20331;-44
2020/12/10 13:52:10;;;;;;;;;;;;;;;;;;5052660;28;20412;-46
2020/12/10 13:54:36;;;;;;;;;;;;;;;;;;5052036;28;19917;-44
2020/12/10 13:57:01;;;;;;;;;;;;;;;;;;5059478;28;19913;-44
2020/12/10 13:59:27;;;;;;;;;;;;;;;;;;5052429;28;19916;-44
2020/12/10 14:01:52;;;;;;;;;;;;;;;;;;5052475;28;19909;-45
2020/12/10 14:04:17;;;;;;;;;;;;;;;;;;5052186;28;20354;-45
2020/12/10 14:06:42;;;;;;;;;;;;;;;;;;5052419;28;19948;-44
2020/12/10 14:09:07;;;;;;;;;;;;;;;;;;5052577;28;19990;-47
2020/12/10 14:11:32;;;;;;;;;;;;;;;;;;5052638;28;19908;-46
2020/12/10 14:13:57;;;;;;;;;;;;;;;;;;5051812;28;20293;-46
2020/12/10 14:16:22;;;;;;;;;;;;;;;;;;5052593;28;20007;-46
2020/12/10 14:18:48;;;;;;;;;;;;;;;;;;5052382;28;19991;-44
2020/12/10 14:21:13;;;;;;;;;;;;;;;;;;5052321;28;20258;-44
2020/12/10 14:23:39;;;;;;;;;;;;;;;;;;5052066;28;19909;-42
2020/12/10 14:26:05;;;;;;;;;;;;;;;;;;5034307;28;19909;-45
2020/12/10 14:28:31;;;;;;;;;;;;;;;;;;5052019;28;20007;-46
2020/12/10 14:30:56;;;;;;;;;;;;;;;;;;5052115;28;19955;-44
2020/12/10 14:33:21;;;;;;;;;;;;;;;;;;5051532;28;19936;-43
2020/12/10 14:35:46;;;;;;;;;;;;;;;;;;5052169;28;19960;-44
2020/12/10 14:38:11;;;;;;;;;;;;;;;;;;5051679;28;19949;-45
2020/12/10 14:40:36;;;;;;;;;;;;;;;;;;5051830;28;20372;-45
2020/12/10 14:43:02;;;;;;;;;;;;;;;;;;5051372;28;19909;-42
2020/12/10 14:45:27;;;;;;;;;;;;;;;;;;5051757;28;19963;-46
2020/12/10 14:47:52;;;;;;;;;;;;;;;;;;5051719;28;19916;-41
2020/12/10 14:50:17;;;;;;;;;;;;;;;;;;5051532;28;19908;-46
2020/12/10 14:55:10;;;;;;;;;;;;;;;;;;5070130;28;19932;-47
2020/12/10 14:57:35;;;;;;;;;;;;;;;;;;5069266;28;19920;-47
2020/12/10 15:00:00;;;;;;;;;;;;;;;;;;5071404;28;19917;-46
2020/12/10 15:02:25;;;;;;;;;;;;;;;;;;5070658;28;19909;-49
2020/12/10 15:04:50;;;;;;;;;;;;;;;;;;5071147;28;20376;-48
2020/12/10 15:07:16;;;;;;;;;;;;;;;;;;5071611;28;20308;-46
2020/12/10 15:09:41;;;;;;;;;;;;;;;;;;5071651;28;19954;-46
2020/12/10 15:12:07;;;;;;;;;;;;;;;;;;5070209;28;19912;-45
2020/12/10 15:14:32;;;;;;;;;;;;;;;;;;5071053;28;20328;-46
2020/12/10 15:16:57;;;;;;;;;;;;;;;;;;5071069;28;19908;-45
2020/12/10 15:19:24;;;;;;;;;;;;;;;;;;5070643;28;19914;-45
2020/12/10 15:21:49;;;;;;;;;;;;;;;;;;5071096;28;19939;-49
2020/12/10 15:24:14;;;;;;;;;;;;;;;;;;5070912;28;19959;-48
2020/12/10 15:26:39;;;;;;;;;;;;;;;;;;5070912;28;19944;-41
2020/12/10 15:29:04;;;;;;;;;;;;;;;;;;5071068;28;20388;-46
2020/12/10 15:31:29;;;;;;;;;;;;;;;;;;5070790;28;19962;-50
2020/12/10 15:33:54;;;;;;;;;;;;;;;;;;5070062;28;19935;-44
2020/12/10 15:36:20;;;;;;;;;;;;;;;;;;5060740;28;19954;-46
2020/12/10 15:38:45;;;;;;;;;;;;;;;;;;5051105;28;19913;-47
2020/12/10 15:41:10;;;;;;;;;;;;;;;;;;5050276;28;19912;-43
2020/12/10 15:43:35;;;;;;;;;;;;;;;;;;5050047;28;20272;-49
2020/12/10 15:46:02;;;;;;;;;;;;;;;;;;5051014;28;20316;-47
2020/12/10 15:48:27;;;;;;;;;;;;;;;;;;5048681;28;19909;-46
2020/12/10 15:50:52;;;;;;;;;;;;;;;;;;5049992;28;19915;-47
2020/12/10 15:53:17;;;;;;;;;;;;;;;;;;5050077;28;19913;-46
2020/12/10 15:55:42;;;;;;;;;;;;;;;;;;5050816;28;19909;-43
2020/12/10 15:58:07;;;;;;;;;;;;;;;;;;5063956;28;19978;-50
2020/12/10 16:00:32;;;;;;;;;;;;;;;;;;5070247;28;19920;-48
2020/12/10 16:02:57;;;;;;;;;;;;;;;;;;5069388;28;19936;-49
2020/12/10 16:05:23;;;;;;;;;;;;;;;;;;5069858;28;19908;-47
2020/12/10 16:07:48;;;;;;;;;;;;;;;;;;5070360;28;19909;-48
2020/12/10 16:10:13;;;;;;;;;;;;;;;;;;5070262;28;19908;-46
2020/12/10 16:12:38;;;;;;;;;;;;;;;;;;5069066;28;20379;-46
2020/12/10 16:15:03;;;;;;;;;;;;;;;;;;5070167;28;19932;-48
2020/12/10 16:17:28;;;;;;;;;;;;;;;;;;5070092;28;20288;-47
2020/12/10 16:19:53;;;;;;;;;;;;;;;;;;5069746;28;19919;-49
2020/12/10 16:22:18;;;;;;;;;;;;;;;;;;5069278;28;19913;-48
2020/12/10 16:24:44;;;;;;;;;;;;;;;;;;5069935;28;19912;-48
2020/12/10 16:27:11;;;;;;;;;;;;;;;;;;5069616;28;20007;-46
2020/12/10 16:29:36;;;;;;;;;;;;;;;;;;5069913;28;19913;-48
2020/12/10 16:32:01;;;;;;;;;;;;;;;;;;5069415;28;19915;-47
2020/12/10 16:34:26;;;;;;;;;;;;;;;;;;5069774;28;19909;-48
2020/12/10 16:36:51;;;;;;;;;;;;;;;;;;5055484;28;19909;-46
2020/12/10 16:39:17;;;;;;;;;;;;;;;;;;5049955;28;19991;-45
2020/12/10 16:41:42;;;;;;;;;;;;;;;;;;5049711;28;20004;-45
2020/12/10 16:44:07;;;;;;;;;;;;;;;;;;5049428;28;20000;-46
2020/12/10 16:46:32;;;;;;;;;;;;;;;;;;5050148;28;20343;-44
2020/12/10 16:48:57;;;;;;;;;;;;;;;;;;5047942;28;20373;-46
2020/12/10 16:51:22;;;;;;;;;;;;;;;;;;5050344;28;20022;-48
2020/12/10 16:53:47;;;;;;;;;;;;;;;;;;5047550;28;19960;-47
2020/12/10 16:56:13;;;;;;;;;;;;;;;;;;5034113;28;19932;-47
2020/12/10 16:58:38;;;;;;;;;;;;;;;;;;5029707;28;19909;-45
2020/12/10 17:01:03;;;;;;;;;;;;;;;;;;5034515;28;19912;-45
2020/12/10 17:03:28;;;;;;;;;;;;;;;;;;5035508;28;19966;-45
2020/12/10 17:05:54;;;;;;;;;;;;;;;;;;5035985;28;20008;-45
2020/12/10 17:08:19;;;;;;;;;;;;;;;;;;5036226;28;19916;-44
2020/12/10 17:10:44;;;;;;;;;;;;;;;;;;5035290;28;19912;-44
2020/12/10 17:13:10;;;;;;;;;;;;;;;;;;5034465;28;20000;-44
2020/12/10 17:15:36;;;;;;;;;;;;;;;;;;5034801;28;19916;-46
2020/12/10 17:18:01;;;;;;;;;;;;;;;;;;5032440;28;19909;-47
2020/12/10 17:20:26;;;;;;;;;;;;;;;;;;5034439;28;20407;-47
2020/12/10 17:22:51;;;;;;;;;;;;;;;;;;5034538;28;19909;-46
2020/12/10 17:25:16;;;;;;;;;;;;;;;;;;5034803;28;19955;-45
2020/12/10 17:27:41;;;;;;;;;;;;;;;;;;5034740;28;19914;-46
2020/12/10 17:30:07;;;;;;;;;;;;;;;;;;5034758;28;19913;-45
2020/12/10 17:32:32;;;;;;;;;;;;;;;;;;5034260;28;19963;-45
2020/12/10 17:34:57;;;;;;;;;;;;;;;;;;5034710;28;19914;-47
2020/12/10 17:37:22;;;;;;;;;;;;;;;;;;5034803;28;19909;-46
2020/12/10 17:39:47;;;;;;;;;;;;;;;;;;5034458;28;19913;-47
2020/12/10 17:42:12;;;;;;;;;;;;;;;;;;5034309;28;19909;-46
2020/12/10 17:44:37;;;;;;;;;;;;;;;;;;5034262;28;19916;-45
2020/12/10 17:47:03;;;;;;;;;;;;;;;;;;5034388;28;19913;-45
2020/12/10 17:49:28;;;;;;;;;;;;;;;;;;5034447;28;19909;-46
2020/12/10 17:51:53;;;;;;;;;;;;;;;;;;5034388;28;19910;-48
2020/12/10 17:54:18;;;;;;;;;;;;;;;;;;5033994;28;19996;-47
2020/12/10 17:56:43;;;;;;;;;;;;;;;;;;5034160;28;19917;-47
2020/12/10 17:59:08;;;;;;;;;;;;;;;;;;5034223;28;19909;-46
2020/12/10 18:01:33;;;;;;;;;;;;;;;;;;5033992;28;19920;-48
2020/12/10 18:03:58;;;;;;;;;;;;;;;;;;5034015;28;19920;-45
2020/12/10 18:06:23;;;;;;;;;;;;;;;;;;5034222;28;19909;-47
2020/12/10 18:08:49;;;;;;;;;;;;;;;;;;5034146;28;19916;-45
2020/12/10 18:11:14;;;;;;;;;;;;;;;;;;5033999;28;19916;-48
2020/12/10 18:13:39;;;;;;;;;;;;;;;;;;5033190;28;19909;-47
2020/12/10 18:16:04;;;;;;;;;;;;;;;;;;5033808;28;19913;-47
2020/12/10 18:18:29;;;;;;;;;;;;;;;;;;5033845;28;19913;-47
2020/12/10 18:20:54;;;;;;;;;;;;;;;;;;5033487;28;20000;-47
2020/12/10 18:23:19;;;;;;;;;;;;;;;;;;5033411;28;19913;-46
2020/12/10 18:25:44;;;;;;;;;;;;;;;;;;5033775;28;19976;-47
2020/12/10 18:28:09;;;;;;;;;;;;;;;;;;5033765;28;19956;-45
2020/12/10 18:30:35;;;;;;;;;;;;;;;;;;5033643;28;19909;-46
2020/12/10 18:33:00;;;;;;;;;;;;;;;;;;5033295;28;19947;-44
2020/12/10 18:35:25;;;;;;;;;;;;;;;;;;5033732;28;19936;-46
2020/12/10 18:37:50;;;;;;;;;;;;;;;;;;5033592;28;19909;-46
2020/12/10 18:40:15;;;;;;;;;;;;;;;;;;5033452;28;19917;-47
2020/12/10 18:42:40;;;;;;;;;;;;;;;;;;5033158;28;19916;-47
2020/12/10 18:45:05;;;;;;;;;;;;;;;;;;5033301;28;20014;-45
2020/12/10 18:47:30;;;;;;;;;;;;;;;;;;5033349;28;19909;-46
2020/12/10 18:49:55;;;;;;;;;;;;;;;;;;5033319;28;20346;-45
2020/12/10 18:52:21;;;;;;;;;;;;;;;;;;5032957;28;20378;-47
2020/12/10 18:54:46;;;;;;;;;;;;;;;;;;5032989;28;20389;-46
2020/12/10 18:57:11;;;;;;;;;;;;;;;;;;5032993;28;19956;-46
2020/12/10 18:59:36;;;;;;;;;;;;;;;;;;5033061;28;19960;-46
2020/12/10 19:02:08;;;;;;;;;;;;;;;;;;5032813;28;20289;-46
2020/12/10 19:04:34;;;;;;;;;;;;;;;;;;5032914;28;20267;-46
2020/12/10 19:06:59;;;;;;;;;;;;;;;;;;5033148;28;20020;-48
2020/12/10 19:09:24;;;;;;;;;;;;;;;;;;5032801;28;20048;-46
2020/12/10 19:11:49;;;;;;;;;;;;;;;;;;5032825;28;20000;-50
2020/12/10 19:14:14;;;;;;;;;;;;;;;;;;5032505;28;19999;-46
2020/12/10 19:16:40;;;;;;;;;;;;;;;;;;5032689;28;19909;-43
2020/12/10 19:19:05;;;;;;;;;;;;;;;;;;5032593;28;19909;-45
2020/12/10 19:21:30;;;;;;;;;;;;;;;;;;5032651;28;19917;-45
2020/12/10 19:23:55;;;;;;;;;;;;;;;;;;5031575;28;19909;-48
2020/12/10 19:26:20;;;;;;;;;;;;;;;;;;5032560;28;19913;-45
2020/12/10 19:28:45;;;;;;;;;;;;;;;;;;5032569;28;19913;-49
2020/12/10 19:31:10;;;;;;;;;;;;;;;;;;5032431;28;19910;-44
2020/12/10 19:33:35;;;;;;;;;;;;;;;;;;5032310;28;19915;-45
2020/12/10 19:36:01;;;;;;;;;;;;;;;;;;5032561;28;20027;-44
2020/12/10 19:38:26;;;;;;;;;;;;;;;;;;5032400;28;19909;-46
2020/12/10 19:40:51;;;;;;;;;;;;;;;;;;5032225;28;19913;-45
2020/12/10 19:43:16;;;;;;;;;;;;;;;;;;5031957;28;19916;-44
2020/12/10 19:45:45;;;;;;;;;;;;;;;;;;5032189;28;19916;-45
2020/12/10 19:48:10;;;;;;;;;;;;;;;;;;5032118;28;20370;-47
2020/12/10 19:50:38;;;;;;;;;;;;;;;;;;5032091;28;20400;-47
2020/12/10 19:53:03;;;;;;;;;;;;;;;;;;5031863;28;19940;-46
2020/12/10 19:55:30;;;;;;;;;;;;;;;;;;5032008;28;20007;-45
2020/12/10 19:57:56;;;;;;;;;;;;;;;;;;5032134;28;19913;-45
2020/12/10 20:00:24;;;;;;;;;;;;;;;;;;5031910;28;19913;-47
2020/12/10 20:02:49;;;;;;;;;;;;;;;;;;5031622;28;19916;-45
2020/12/10 20:05:14;;;;;;;;;;;;;;;;;;5031868;28;20012;-47
2020/12/10 20:07:39;;;;;;;;;;;;;;;;;;5032096;28;20007;-46
2020/12/10 20:10:04;;;;;;;;;;;;;;;;;;5031743;28;20016;-46
2020/12/10 20:12:29;;;;;;;;;;;;;;;;;;5031601;28;20008;-47
2020/12/10 20:14:59;;;;;;;;;;;;;;;;;;5031522;28;20007;-46
2020/12/10 20:17:24;;;;;;;;;;;;;;;;;;5031633;28;19936;-46
2020/12/10 20:19:49;;;;;;;;;;;;;;;;;;5031397;28;19953;-47
2020/12/10 20:22:14;;;;;;;;;;;;;;;;;;5031731;28;19955;-45
2020/12/10 20:24:39;;;;;;;;;;;;;;;;;;5031584;28;19980;-46
2020/12/10 20:27:05;;;;;;;;;;;;;;;;;;5031714;28;19913;-48
2020/12/10 20:29:41;;;;;;;;;;;;;;;;;;5031466;28;19910;-45
2020/12/10 20:32:06;;;;;;;;;;;;;;;;;;5031283;28;20370;-46
2020/12/10 20:34:32;;;;;;;;;;;;;;;;;;5031610;28;19971;-46
2020/12/10 20:36:57;;;;;;;;;;;;;;;;;;5031332;28;19937;-48
2020/12/10 20:39:22;;;;;;;;;;;;;;;;;;5031477;28;19960;-47
2020/12/10 20:41:47;;;;;;;;;;;;;;;;;;5031706;28;20393;-48
2020/12/10 20:44:12;;;;;;;;;;;;;;;;;;5030998;28;19909;-47
2020/12/10 20:46:39;;;;;;;;;;;;;;;;;;5031273;28;20263;-46
2020/12/10 20:49:04;;;;;;;;;;;;;;;;;;5031293;28;20389;-44
2020/12/10 20:51:29;;;;;;;;;;;;;;;;;;5031498;28;19932;-47
2020/12/10 20:53:54;;;;;;;;;;;;;;;;;;5030836;28;19928;-45
2020/12/10 20:56:19;;;;;;;;;;;;;;;;;;5031180;28;19909;-47
2020/12/10 20:58:44;;;;;;;;;;;;;;;;;;5031201;28;19909;-45
2020/12/10 21:01:09;;;;;;;;;;;;;;;;;;5031202;28;19967;-47
2020/12/10 21:03:34;;;;;;;;;;;;;;;;;;5031034;28;19975;-46
2020/12/10 21:06:00;;;;;;;;;;;;;;;;;;5031595;28;19909;-48
2020/12/10 21:08:25;;;;;;;;;;;;;;;;;;5031255;28;19971;-46
2020/12/10 21:10:50;;;;;;;;;;;;;;;;;;5031154;28;19909;-45
2020/12/10 21:13:15;;;;;;;;;;;;;;;;;;5030687;28;19921;-46
2020/12/10 21:15:40;;;;;;;;;;;;;;;;;;5031043;28;19920;-46
2020/12/10 21:18:09;;;;;;;;;;;;;;;;;;5031134;28;19909;-45
2020/12/10 21:20:34;;;;;;;;;;;;;;;;;;5030822;28;19976;-46
2020/12/10 21:22:59;;;;;;;;;;;;;;;;;;5030722;28;19944;-46
2020/12/10 21:25:24;;;;;;;;;;;;;;;;;;5030932;28;20013;-47
2020/12/10 21:27:49;;;;;;;;;;;;;;;;;;5031020;28;19984;-46
2020/12/10 21:30:14;;;;;;;;;;;;;;;;;;5030937;28;19921;-45
2020/12/10 21:32:39;;;;;;;;;;;;;;;;;;5030596;28;20602;-44
2020/12/10 21:35:05;;;;;;;;;;;;;;;;;;5031366;28;19983;-45
2020/12/10 21:37:30;;;;;;;;;;;;;;;;;;5030921;28;19913;-46
2020/12/10 21:39:55;;;;;;;;;;;;;;;;;;5030787;28;19924;-46
2020/12/10 21:42:20;;;;;;;;;;;;;;;;;;5030552;28;19909;-45
2020/12/10 21:44:45;;;;;;;;;;;;;;;;;;5030745;28;19913;-46
2020/12/10 21:47:10;;;;;;;;;;;;;;;;;;5031080;28;19964;-48
2020/12/10 21:49:35;;;;;;;;;;;;;;;;;;5035265;28;19913;-46
2020/12/10 21:52:00;;;;;;;;;;;;;;;;;;5035261;28;19909;-47
2020/12/10 21:54:26;;;;;;;;;;;;;;;;;;5035182;28;19963;-45
2020/12/10 21:56:51;;;;;;;;;;;;;;;;;;5035356;28;19909;-46
2020/12/10 21:59:18;;;;;;;;;;;;;;;;;;5035152;28;20352;-45
2020/12/10 22:01:43;;;;;;;;;;;;;;;;;;5035091;28;20365;-46
2020/12/10 22:04:08;;;;;;;;;;;;;;;;;;5034836;28;20388;-45
2020/12/10 22:06:34;;;;;;;;;;;;;;;;;;5035485;28;19916;-45
2020/12/10 22:08:59;;;;;;;;;;;;;;;;;;5035050;28;19909;-47
2020/12/10 22:11:24;;;;;;;;;;;;;;;;;;5035095;28;19921;-45
2020/12/10 22:13:53;;;;;;;;;;;;;;;;;;5034485;28;20381;-45
2020/12/10 22:16:18;;;;;;;;;;;;;;;;;;5035207;28;19913;-46
2020/12/10 22:18:43;;;;;;;;;;;;;;;;;;5034869;28;19915;-46
2020/12/10 22:21:09;;;;;;;;;;;;;;;;;;5034609;28;19913;-45
2020/12/10 22:23:34;;;;;;;;;;;;;;;;;;5034542;28;20255;-46
2020/12/10 22:25:59;;;;;;;;;;;;;;;;;;5034807;28;19936;-48
2020/12/10 22:28:24;;;;;;;;;;;;;;;;;;5034638;28;19949;-46
2020/12/10 22:30:50;;;;;;;;;;;;;;;;;;5034709;28;19945;-48
2020/12/10 22:33:15;;;;;;;;;;;;;;;;;;5034399;28;20006;-45
2020/12/10 22:35:40;;;;;;;;;;;;;;;;;;5034672;28;19963;-46
2020/12/10 22:38:05;;;;;;;;;;;;;;;;;;5034500;28;20226;-46
2020/12/10 22:40:30;;;;;;;;;;;;;;;;;;5034416;28;19913;-44
2020/12/10 22:42:55;;;;;;;;;;;;;;;;;;5033974;28;19913;-48
2020/12/10 22:45:21;;;;;;;;;;;;;;;;;;5034381;28;19979;-44
2020/12/10 22:47:46;;;;;;;;;;;;;;;;;;5034291;28;19909;-47
2020/12/10 22:50:15;;;;;;;;;;;;;;;;;;5034190;28;19909;-46
2020/12/10 22:52:40;;;;;;;;;;;;;;;;;;5034072;28;19917;-45
2020/12/10 22:55:05;;;;;;;;;;;;;;;;;;5034112;28;19917;-48
2020/12/10 22:57:31;;;;;;;;;;;;;;;;;;5034218;28;19909;-45
2020/12/10 22:59:56;;;;;;;;;;;;;;;;;;5034082;28;19920;-48
2020/12/10 23:02:21;;;;;;;;;;;;;;;;;;5034016;28;19909;-46
2020/12/10 23:04:46;;;;;;;;;;;;;;;;;;5033941;28;19916;-47
2020/12/10 23:07:11;;;;;;;;;;;;;;;;;;5033898;28;19916;-45
2020/12/10 23:09:36;;;;;;;;;;;;;;;;;;5034005;28;20016;-47
2020/12/10 23:12:01;;;;;;;;;;;;;;;;;;5033621;28;19996;-46
2020/12/10 23:14:26;;;;;;;;;;;;;;;;;;5033660;28;19960;-46
2020/12/10 23:16:51;;;;;;;;;;;;;;;;;;5034950;28;19916;-44
2020/12/10 23:19:16;;;;;;;;;;;;;;;;;;5033501;28;19916;-46
2020/12/10 23:21:42;;;;;;;;;;;;;;;;;;5033617;28;20005;-45
2020/12/10 23:24:07;;;;;;;;;;;;;;;;;;5033330;28;20409;-46
2020/12/10 23:26:32;;;;;;;;;;;;;;;;;;5033478;28;19910;-46
2020/12/10 23:28:57;;;;;;;;;;;;;;;;;;5033494;28;19913;-45
2020/12/10 23:31:22;;;;;;;;;;;;;;;;;;5033767;28;19917;-48
2020/12/10 23:33:47;;;;;;;;;;;;;;;;;;5033034;28;19916;-46
2020/12/10 23:36:12;;;;;;;;;;;;;;;;;;5033527;28;19996;-49
2020/12/10 23:38:38;;;;;;;;;;;;;;;;;;5033512;28;20000;-45
2020/12/10 23:41:03;;;;;;;;;;;;;;;;;;5033192;28;19913;-48
2020/12/10 23:43:28;;;;;;;;;;;;;;;;;;5032958;28;19941;-44
2020/12/10 23:45:53;;;;;;;;;;;;;;;;;;5033450;28;19909;-46
2020/12/10 23:48:18;;;;;;;;;;;;;;;;;;5032607;28;19913;-45
2020/12/10 23:50:43;;;;;;;;;;;;;;;;;;5033004;28;19910;-45
2020/12/10 23:53:08;;;;;;;;;;;;;;;;;;5032702;28;19987;-44
2020/12/10 23:55:33;;;;;;;;;;;;;;;;;;5033147;28;19909;-46
2020/12/10 23:58:00;;;;;;;;;;;;;;;;;;5033035;28;19915;-45
